Hattiesburg Laurel Regional Airport
KPIB : now visible

Airfield :











YOU CAN JOIN US ON...

 
LOGIN :

Register | Disclaimer

   EN    FR    IT 

 









Legend :    VFR   Marginal VFR   IFR   Intensive IFR   Very Intensive IFR
Visi :
Ceiling :
>= 8 km
>= 3000ft
5 to 8 km
1000 to 3000 ft
1500m to 5 km
500 to 1000 ft
800 to 1500m
200 to 500 ft
< 800m
< 200 ft
Symbols :   Thunderstorms  Fog  Heavy snow  Heavy precipitations  Wind > 20 kt






- Airport Elevation : 298 ft
- IATA code : PIB


KPIB - Hattiesburg Laurel Regional

CURRENT METAR :
  • 191556Z AUTO 13005KT 10SM SCT011 BKN034 26/24 A3004 RMK AO2 SLP168 T02560239

EXPIRED METARs :
  • 191456Z AUTO 12003KT 10SM FEW120 25/23 A3002 RMK AO2 SLP163 6//// T02500233 51012
  • 191415Z AUTO 14003KT 10SM SCT003 SCT060 24/23 A3002 RMK AO2
  • 191356Z AUTO 13004KT 10SM BKN003 BKN049 OVC060 23/23 A3001 RMK AO2 RAE17 SLP160 P0001 T02330233
  • 191344Z AUTO 13004KT 10SM BKN003 BKN049 BKN090 23/23 A3001 RMK AO2 RAE17 P0001

TAF KPIB
Valid from the 19 at 14:00 until the 20 at 12:00 UTC


191336Z 1914/2012 13005KT P6SM -SHRA BKN025 OVC045
FM191700 23005KT P6SM SHRA VCTS OVC050CB
FM200000 00000KT P6SM BKN250
FM201000 00000KT P6SM OVC007
KZHU FIR / North America



MET'MAP, your aeronautical weather chart ! - Copyright ORBIFLY December 2007 - Disclaimer

ORBIFLY MET'MAP TEAM :

Programming & Development : Alexandra Zaïnal
Original concept : Baudouin d'Aumeries
Technical & hardware support : Manuel Goepfert
Assistance : Marc-Olivier Méhu




SOURCES & CREDITS :

   NOAA       Earth
Advisory